createdAt,value
2023-01-09T00:01:26.105Z,3.75
2023-01-09T00:03:54.229Z,3.74
2023-01-09T00:06:22.587Z,3.75
2023-01-09T00:08:50.724Z,3.74
2023-01-09T00:11:18.725Z,3.70
2023-01-09T00:13:48.243Z,3.76
2023-01-09T00:16:16.785Z,3.79
2023-01-09T00:18:44.810Z,3.79
2023-01-09T00:21:14.475Z,3.80
2023-01-09T00:23:42.562Z,3.81
2023-01-09T00:26:13.019Z,3.84
2023-01-09T00:28:41.577Z,3.84
2023-01-09T00:31:11.754Z,3.84
2023-01-09T00:33:42.815Z,3.87
2023-01-09T00:36:11.439Z,3.67
2023-01-09T00:38:39.919Z,3.85
2023-01-09T00:41:11.012Z,3.13
2023-01-09T00:43:45.153Z,3.88
2023-01-09T00:46:15.607Z,3.88
2023-01-09T00:48:46.872Z,3.82
2023-01-09T00:51:16.003Z,3.90
2023-01-09T00:53:44.560Z,3.90
2023-01-09T00:56:18.104Z,3.92
2023-01-09T00:58:46.860Z,3.83
2023-01-09T01:01:16.387Z,3.95
2023-01-09T01:03:44.329Z,3.96
2023-01-09T01:06:29.651Z,3.95
2023-01-09T01:08:57.635Z,3.96
2023-01-09T01:11:25.713Z,3.95
2023-01-09T01:13:53.581Z,3.96
2023-01-09T01:16:23.127Z,3.88
2023-01-09T01:18:51.621Z,3.96
2023-01-09T01:21:19.794Z,3.98
2023-01-09T01:23:47.872Z,3.96
2023-01-09T01:26:17.651Z,3.98
2023-01-09T01:28:45.785Z,3.95
2023-01-09T01:31:18.277Z,4.00
2023-01-09T01:33:47.616Z,4.00
2023-01-09T01:36:17.612Z,3.94
2023-01-09T01:38:47.084Z,4.01
2023-01-09T01:41:29.414Z,4.01
2023-01-09T01:43:59.793Z,3.81
2023-01-09T01:46:27.948Z,3.96
2023-01-09T01:49:01.046Z,4.01
2023-01-09T01:51:32.697Z,4.02
2023-01-09T01:54:07.916Z,3.91
2023-01-09T01:56:39.744Z,4.05
2023-01-09T01:59:12.991Z,3.71
2023-01-09T02:01:44.085Z,4.04
2023-01-09T02:04:14.069Z,3.54
2023-01-09T02:06:43.706Z,3.92
2023-01-09T02:09:15.470Z,4.02
2023-01-09T02:11:46.719Z,4.06
2023-01-09T02:14:15.339Z,4.09
2023-01-09T02:16:52.718Z,4.09
2023-01-09T02:19:50.924Z,3.98
2023-01-09T02:22:31.840Z,4.04
2023-01-09T02:25:27.193Z,4.12
2023-01-09T02:28:32.967Z,4.13
2023-01-09T02:31:09.283Z,4.13
2023-01-09T02:33:48.851Z,4.14
2023-01-09T02:36:24.740Z,4.11
2023-01-09T02:39:09.111Z,4.10
2023-01-09T02:41:44.393Z,4.16
2023-01-09T02:44:22.010Z,4.15
2023-01-09T02:47:02.104Z,4.16
2023-01-09T02:49:31.144Z,4.15
2023-01-09T02:52:08.205Z,4.17
2023-01-09T02:54:50.772Z,4.19
2023-01-09T02:57:39.803Z,4.20
2023-01-09T03:00:22.093Z,3.95
2023-01-09T03:02:54.512Z,4.21
2023-01-09T03:05:28.828Z,4.23
2023-01-09T03:08:02.654Z,4.24
2023-01-09T03:10:35.991Z,4.26
2023-01-09T03:13:04.660Z,4.24
2023-01-09T03:15:35.948Z,4.24
2023-01-09T03:18:07.089Z,4.27
2023-01-09T03:20:35.846Z,4.08
2023-01-09T03:23:06.335Z,4.09
2023-01-09T03:25:34.734Z,4.29
2023-01-09T03:28:06.995Z,4.20
2023-01-09T03:30:37.273Z,4.30
2023-01-09T03:33:06.576Z,4.30
2023-01-09T03:35:34.438Z,4.30
2023-01-09T03:38:02.388Z,4.29
2023-01-09T03:40:30.284Z,4.22
2023-01-09T03:42:58.188Z,4.28
2023-01-09T03:45:26.147Z,4.23
2023-01-09T03:47:54.154Z,4.31
2023-01-09T03:50:23.360Z,4.28
2023-01-09T03:52:51.341Z,4.24
2023-01-09T03:55:19.257Z,4.32
2023-01-09T03:57:47.042Z,4.26
2023-01-09T04:00:15.912Z,4.28
2023-01-09T04:02:43.886Z,4.37
2023-01-09T04:05:12.135Z,4.38
2023-01-09T04:07:41.707Z,4.38
2023-01-09T04:10:11.024Z,4.39
2023-01-09T04:12:39.122Z,4.40
2023-01-09T04:15:08.245Z,4.41
2023-01-09T04:17:36.178Z,4.41
2023-01-09T04:20:04.319Z,4.42
2023-01-09T04:22:32.625Z,4.44
2023-01-09T04:25:01.929Z,4.46
2023-01-09T04:27:29.793Z,4.46
2023-01-09T04:29:57.815Z,4.45
2023-01-09T04:32:27.626Z,4.43
2023-01-09T04:34:55.987Z,4.43
2023-01-09T04:37:25.416Z,4.45
2023-01-09T04:39:56.035Z,4.46
2023-01-09T04:42:25.670Z,4.47
2023-01-09T04:44:54.527Z,4.41
2023-01-09T04:47:23.838Z,4.42
2023-01-09T04:49:52.085Z,4.45
2023-01-09T04:52:20.149Z,4.47
2023-01-09T04:54:47.954Z,4.47
2023-01-09T04:57:15.915Z,4.46
2023-01-09T04:59:45.266Z,4.46
2023-01-09T05:02:13.439Z,4.46
2023-01-09T05:04:41.472Z,4.20
2023-01-09T05:07:09.421Z,4.46
2023-01-09T05:09:37.262Z,4.22
2023-01-09T05:12:05.570Z,4.49
2023-01-09T05:14:33.519Z,4.49
2023-01-09T05:17:02.738Z,4.51
2023-01-09T05:19:30.747Z,4.30
2023-01-09T05:21:58.629Z,4.51
2023-01-09T05:24:26.493Z,4.50
2023-01-09T05:26:54.470Z,4.49
2023-01-09T05:29:22.428Z,4.49
2023-01-09T05:31:50.272Z,4.46
2023-01-09T05:34:19.597Z,4.51
2023-01-09T05:36:47.619Z,4.50
2023-01-09T05:39:15.482Z,4.50
2023-01-09T05:41:43.401Z,4.50
2023-01-09T05:44:11.367Z,4.51
2023-01-09T05:46:39.283Z,4.52
2023-01-09T05:49:07.304Z,4.54
2023-01-09T05:51:36.660Z,4.56
2023-01-09T05:54:05.759Z,4.59
2023-01-09T05:56:33.730Z,4.43
2023-01-09T05:59:01.795Z,4.60
2023-01-09T06:01:30.213Z,4.58
2023-01-09T06:03:58.257Z,4.59
2023-01-09T06:06:26.312Z,4.33
2023-01-09T06:08:55.529Z,4.57
2023-01-09T06:11:23.487Z,4.59
2023-01-09T06:13:51.434Z,4.28
2023-01-09T06:16:19.539Z,4.61
2023-01-09T06:18:47.549Z,4.53
2023-01-09T06:21:15.496Z,4.61
2023-01-09T06:23:43.365Z,4.34
2023-01-09T06:26:12.666Z,4.59
2023-01-09T06:28:40.586Z,4.55
2023-01-09T06:31:08.489Z,4.56
2023-01-09T06:33:36.561Z,4.61
2023-01-09T06:36:04.895Z,4.62
2023-01-09T06:38:32.716Z,4.61
2023-01-09T06:41:00.687Z,4.59
2023-01-09T06:43:29.947Z,4.59
2023-01-09T06:45:57.835Z,4.53
2023-01-09T06:48:26.396Z,4.37
2023-01-09T06:50:54.510Z,4.56
2023-01-09T06:53:22.428Z,4.37
2023-01-09T06:55:50.586Z,4.56
2023-01-09T06:58:18.519Z,4.47
2023-01-09T07:00:49.374Z,4.44
2023-01-09T07:03:19.973Z,4.60
2023-01-09T07:05:48.198Z,4.50
2023-01-09T07:08:16.088Z,4.64
2023-01-09T07:10:44.673Z,4.66
2023-01-09T07:13:12.633Z,4.67
2023-01-09T07:15:40.605Z,4.67
2023-01-09T07:18:10.103Z,4.44
2023-01-09T07:20:40.874Z,4.46
2023-01-09T07:23:09.137Z,4.64
2023-01-09T07:25:37.383Z,4.67
2023-01-09T07:28:05.339Z,4.66
2023-01-09T07:30:33.856Z,4.64
2023-01-09T07:33:03.918Z,4.33
2023-01-09T07:35:33.580Z,4.62
2023-01-09T07:38:01.527Z,4.63
2023-01-09T07:40:29.579Z,4.53
2023-01-09T07:42:57.463Z,4.62
2023-01-09T07:45:25.455Z,4.63
2023-01-09T07:47:53.554Z,4.64
2023-01-09T07:50:21.518Z,4.60
2023-01-09T07:52:50.955Z,4.66
2023-01-09T07:55:18.952Z,4.66
2023-01-09T07:57:49.922Z,4.67
2023-01-09T08:00:18.687Z,4.63
2023-01-09T08:02:46.699Z,4.69
2023-01-09T08:05:15.950Z,4.71
2023-01-09T08:07:44.306Z,4.72
2023-01-09T08:10:14.276Z,4.56
2023-01-09T08:12:44.203Z,4.73
2023-01-09T08:15:12.885Z,4.61
2023-01-09T08:17:42.601Z,4.71
2023-01-09T08:20:12.334Z,4.66
2023-01-09T08:22:41.855Z,4.72
2023-01-09T08:25:12.428Z,4.71
2023-01-09T08:27:42.619Z,4.74
2023-01-09T08:30:11.784Z,4.59
2023-01-09T08:32:40.210Z,4.73
2023-01-09T08:35:09.247Z,4.73
2023-01-09T08:37:37.369Z,4.65
2023-01-09T08:40:05.704Z,4.71
2023-01-09T08:42:51.081Z,4.71
2023-01-09T08:45:37.775Z,4.69
2023-01-09T08:48:06.464Z,4.69
2023-01-09T08:50:34.339Z,4.68
2023-01-09T08:53:02.170Z,4.68
2023-01-09T08:55:30.167Z,4.68
2023-01-09T08:57:58.037Z,4.70
2023-01-09T09:00:27.447Z,4.71
2023-01-09T09:02:57.457Z,4.75
2023-01-09T09:05:26.569Z,4.69
2023-01-09T09:07:55.844Z,4.70
2023-01-09T09:10:25.128Z,4.77
2023-01-09T09:12:54.922Z,4.76
2023-01-09T09:15:24.611Z,4.60
2023-01-09T09:17:55.758Z,4.77
2023-01-09T09:20:25.011Z,4.79
2023-01-09T09:22:53.489Z,4.82
2023-01-09T09:25:22.504Z,4.84
2023-01-09T09:27:50.547Z,4.61
2023-01-09T09:30:20.648Z,4.56
2023-01-09T09:32:49.730Z,4.87
2023-01-09T09:35:20.994Z,4.79
2023-01-09T09:37:55.382Z,4.75
2023-01-09T09:40:36.617Z,4.83
2023-01-09T09:43:52.003Z,4.81
2023-01-09T09:46:30.196Z,4.81
2023-01-09T09:49:02.789Z,4.81
2023-01-09T09:51:45.604Z,4.84
2023-01-09T09:54:17.037Z,4.74
2023-01-09T09:56:50.728Z,4.87
2023-01-09T09:59:22.027Z,4.53
2023-01-09T10:01:56.476Z,4.91
2023-01-09T10:04:27.446Z,4.92
2023-01-09T10:07:01.336Z,4.93
2023-01-09T10:09:42.636Z,4.86
2023-01-09T10:12:25.483Z,4.93
2023-01-09T10:14:53.484Z,4.92
2023-01-09T10:17:53.274Z,4.92
2023-01-09T10:20:43.611Z,4.91
2023-01-09T10:23:28.740Z,4.89
2023-01-09T10:26:02.572Z,4.90
2023-01-09T10:28:51.467Z,4.92
2023-01-09T10:31:30.690Z,4.95
2023-01-09T10:34:10.366Z,4.98
2023-01-09T10:36:52.298Z,5.01
2023-01-09T10:39:25.897Z,5.04
2023-01-09T10:42:01.036Z,5.00
2023-01-09T10:44:35.719Z,5.08
2023-01-09T10:47:10.091Z,5.06
2023-01-09T10:49:39.585Z,5.04
2023-01-09T10:52:17.071Z,5.07
2023-01-09T10:54:53.366Z,5.08
2023-01-09T10:57:35.947Z,5.08
2023-01-09T11:00:04.887Z,5.01
2023-01-09T11:02:35.315Z,5.03
2023-01-09T11:05:03.346Z,5.06
2023-01-09T11:07:36.903Z,4.96
2023-01-09T11:10:08.743Z,5.03
2023-01-09T11:12:37.906Z,5.02
2023-01-09T11:15:29.068Z,4.93
2023-01-09T11:18:18.372Z,5.00
2023-01-09T11:20:46.462Z,5.01
2023-01-09T11:23:32.784Z,4.92
2023-01-09T11:26:04.479Z,4.97
2023-01-09T11:28:32.632Z,4.88
2023-01-09T11:31:02.630Z,4.96
2023-01-09T11:33:32.559Z,4.94
2023-01-09T11:36:08.117Z,4.81
2023-01-09T11:38:49.533Z,4.92
2023-01-09T11:41:22.201Z,4.90
2023-01-09T11:43:52.335Z,4.48
2023-01-09T11:46:39.663Z,4.85
2023-01-09T11:49:23.571Z,4.82
2023-01-09T11:52:16.470Z,4.81
2023-01-09T11:54:48.720Z,4.65
2023-01-09T11:57:18.571Z,4.74
2023-01-09T11:59:46.555Z,4.77
2023-01-09T12:02:43.455Z,4.75
2023-01-09T12:05:22.499Z,4.74
2023-01-09T12:11:39.527Z,4.70
2023-01-09T12:14:50.763Z,4.77
2023-01-09T12:17:32.123Z,4.71
2023-01-09T12:20:12.920Z,4.82
2023-01-09T12:22:48.953Z,4.82
2023-01-09T12:25:29.128Z,4.83
2023-01-09T12:28:10.666Z,4.84
2023-01-09T12:31:01.275Z,4.87
2023-01-09T12:33:42.851Z,4.86
2023-01-09T12:36:24.339Z,4.87
2023-01-09T12:38:56.522Z,4.86
2023-01-09T12:41:56.853Z,4.79
2023-01-09T12:44:52.564Z,4.93
2023-01-09T12:47:44.517Z,4.94
2023-01-09T12:50:45.704Z,4.96
2023-01-09T12:53:20.072Z,4.95
2023-01-09T12:55:52.527Z,4.97
2023-01-09T12:58:30.801Z,4.91
2023-01-09T13:01:01.308Z,4.65
2023-01-09T13:03:35.594Z,4.99
2023-01-09T13:06:09.121Z,5.01
2023-01-09T13:08:40.615Z,5.03
2023-01-09T13:11:20.463Z,5.05
2023-01-09T13:13:53.961Z,5.06
2023-01-09T13:16:28.117Z,5.08
2023-01-09T13:19:00.339Z,5.09
2023-01-09T13:21:30.247Z,5.02
2023-01-09T13:24:05.232Z,5.03
2023-01-09T13:26:38.690Z,5.02
2023-01-09T13:29:14.002Z,5.09
2023-01-09T13:31:59.825Z,5.07
2023-01-09T13:34:30.597Z,5.07
2023-01-09T13:37:00.716Z,5.07
2023-01-09T13:39:32.334Z,4.93
2023-01-09T13:42:19.917Z,4.99
2023-01-09T13:44:49.771Z,5.04
2023-01-09T13:47:23.427Z,5.03
2023-01-09T13:50:24.540Z,4.99
2023-01-09T13:52:54.439Z,4.99
2023-01-09T13:55:36.132Z,4.88
2023-01-09T13:58:23.765Z,4.96
2023-01-09T14:00:57.573Z,4.94
2023-01-09T14:03:30.029Z,4.93
2023-01-09T14:06:17.367Z,4.90
2023-01-09T14:08:49.196Z,4.93
2023-01-09T14:11:29.175Z,4.84
2023-01-09T14:14:05.060Z,4.79
2023-01-09T14:16:33.645Z,4.86
2023-01-09T14:19:18.131Z,4.86
2023-01-09T14:21:49.032Z,4.46
2023-01-09T14:24:26.076Z,4.80
2023-01-09T14:26:57.161Z,4.87
2023-01-09T14:29:47.664Z,4.81
2023-01-09T14:32:46.706Z,4.82
2023-01-09T14:35:19.011Z,4.77
2023-01-09T14:37:54.495Z,4.59
2023-01-09T14:40:25.099Z,4.12
2023-01-09T14:42:55.368Z,4.79
2023-01-09T14:45:25.383Z,4.78
2023-01-09T14:47:59.325Z,4.74
2023-01-09T14:50:34.706Z,4.75
2023-01-09T14:53:08.167Z,4.72
2023-01-09T14:55:52.310Z,4.66
2023-01-09T14:58:22.812Z,4.56
2023-01-09T15:00:56.798Z,4.69
2023-01-09T15:03:27.160Z,4.69
2023-01-09T15:05:55.215Z,4.29
2023-01-09T15:08:25.009Z,4.57
2023-01-09T15:10:55.813Z,4.60
2023-01-09T15:13:30.270Z,4.65
2023-01-09T15:15:59.498Z,4.63
2023-01-09T15:18:31.773Z,4.62
2023-01-09T15:21:03.084Z,4.49
2023-01-09T15:23:32.323Z,4.45
2023-01-09T15:26:14.470Z,4.62
2023-01-09T15:28:44.192Z,4.55
2023-01-09T15:31:16.342Z,4.62
2023-01-09T15:33:46.643Z,4.61
2023-01-09T15:36:18.655Z,4.61
2023-01-09T15:38:47.967Z,4.42
2023-01-09T15:41:40.741Z,4.30
2023-01-09T15:44:15.041Z,4.56
2023-01-09T15:46:46.277Z,4.56
2023-01-09T15:49:15.152Z,4.54
2023-01-09T15:51:44.881Z,3.87
2023-01-09T15:54:15.743Z,4.51
2023-01-09T15:56:46.459Z,4.48
2023-01-09T15:59:27.034Z,4.38
2023-01-09T16:02:14.538Z,4.40
2023-01-09T16:04:42.907Z,4.42
2023-01-09T16:07:16.266Z,4.42
2023-01-09T16:09:47.530Z,4.41
2023-01-09T16:12:23.517Z,4.40
2023-01-09T16:14:54.361Z,4.41
2023-01-09T16:17:27.406Z,2.39
2023-01-09T16:19:57.983Z,4.26
2023-01-09T16:22:28.266Z,4.38
2023-01-09T16:24:58.649Z,4.38
2023-01-09T16:27:30.806Z,4.27
2023-01-09T16:29:59.997Z,4.32
2023-01-09T16:32:30.804Z,4.31
2023-01-09T16:35:05.395Z,4.21
2023-01-09T16:37:33.820Z,4.28
2023-01-09T16:40:24.312Z,4.26
2023-01-09T16:43:01.709Z,4.01
2023-01-09T16:45:32.903Z,3.79
2023-01-09T16:48:01.480Z,4.03
2023-01-09T16:50:29.839Z,4.19
2023-01-09T16:52:58.579Z,4.03
2023-01-09T16:55:26.549Z,4.14
2023-01-09T16:57:56.234Z,3.94
2023-01-09T17:00:24.544Z,4.10
2023-01-09T17:02:52.341Z,3.20
2023-01-09T17:05:20.201Z,4.05
2023-01-09T17:07:48.147Z,4.03
2023-01-09T17:10:21.932Z,4.02
2023-01-09T17:12:50.374Z,4.00
2023-01-09T17:15:19.560Z,3.96
2023-01-09T17:17:47.345Z,4.01
2023-01-09T17:20:18.103Z,4.00
2023-01-09T17:22:46.021Z,4.00
2023-01-09T17:25:35.418Z,3.99
2023-01-09T17:28:21.806Z,3.99
2023-01-09T17:30:51.150Z,3.97
2023-01-09T17:33:20.221Z,3.69
2023-01-09T17:35:48.054Z,3.96
2023-01-09T17:38:16.876Z,3.93
2023-01-09T17:40:45.121Z,3.92
2023-01-09T17:43:13.257Z,3.87
2023-01-09T17:45:42.499Z,3.91
2023-01-09T17:48:16.365Z,3.91
2023-01-09T17:50:44.804Z,3.87
2023-01-09T17:53:12.853Z,3.83
2023-01-09T17:55:41.528Z,3.51
2023-01-09T17:58:19.857Z,3.79
2023-01-09T18:00:50.670Z,3.79
2023-01-09T18:03:23.146Z,3.77
2023-01-09T18:05:51.257Z,3.76
2023-01-09T18:08:19.783Z,3.72
2023-01-09T18:10:48.766Z,3.78
2023-01-09T18:13:16.970Z,3.67
2023-01-09T18:15:45.489Z,3.75
2023-01-09T18:18:14.209Z,3.74
2023-01-09T18:20:44.246Z,3.74
2023-01-09T18:23:13.128Z,3.73
2023-01-09T18:25:42.428Z,3.71
2023-01-09T18:28:11.454Z,3.35
2023-01-09T18:30:39.429Z,3.68
2023-01-09T18:33:07.350Z,3.56
2023-01-09T18:35:35.198Z,3.56
2023-01-09T18:38:04.507Z,3.68
2023-01-09T18:40:33.247Z,3.28
2023-01-09T18:43:04.943Z,3.49
2023-01-09T18:45:33.253Z,3.66
2023-01-09T18:48:01.181Z,3.64
2023-01-09T18:50:29.067Z,3.63
2023-01-09T18:52:57.021Z,3.31
2023-01-09T18:55:26.540Z,3.48
2023-01-09T18:57:56.729Z,3.50
2023-01-09T19:00:24.884Z,2.92
2023-01-09T19:02:52.944Z,3.33
2023-01-09T19:05:20.824Z,3.50
2023-01-09T19:07:48.728Z,3.50
2023-01-09T19:10:16.942Z,3.36
2023-01-09T19:12:46.183Z,3.47
2023-01-09T19:15:14.129Z,3.44
2023-01-09T19:17:42.287Z,3.40
2023-01-09T19:20:11.582Z,3.39
2023-01-09T19:22:39.944Z,2.75
2023-01-09T19:25:08.684Z,3.23
2023-01-09T19:27:36.543Z,3.31
2023-01-09T19:30:07.471Z,3.27
2023-01-09T19:32:35.374Z,3.28
2023-01-09T19:35:03.185Z,3.28
2023-01-09T19:37:31.144Z,3.24
2023-01-09T19:39:59.307Z,3.27
2023-01-09T19:42:27.147Z,3.23
2023-01-09T19:44:55.067Z,3.22
2023-01-09T19:47:24.271Z,3.11
2023-01-09T19:49:52.098Z,3.23
2023-01-09T19:52:20.338Z,3.18
2023-01-09T19:54:48.383Z,3.23
2023-01-09T19:57:16.209Z,3.17
2023-01-09T19:59:44.233Z,3.22
2023-01-09T20:02:13.251Z,3.19
2023-01-09T20:04:42.363Z,3.18
2023-01-09T20:07:10.365Z,3.15
2023-01-09T20:09:38.459Z,3.12
2023-01-09T20:12:06.899Z,3.09
2023-01-09T20:14:37.184Z,3.12
2023-01-09T20:17:05.333Z,3.10
2023-01-09T20:19:33.782Z,3.06
2023-01-09T20:22:03.482Z,3.05
2023-01-09T20:24:31.441Z,3.02
2023-01-09T20:26:59.266Z,2.97
2023-01-09T20:29:27.180Z,2.82
2023-01-09T20:31:55.183Z,2.92
2023-01-09T20:34:23.114Z,2.91
2023-01-09T20:36:51.101Z,2.61
2023-01-09T20:39:20.452Z,2.90
2023-01-09T20:41:48.383Z,2.86
2023-01-09T20:44:16.769Z,2.57
2023-01-09T20:46:48.125Z,2.79
2023-01-09T20:49:18.365Z,2.57
2023-01-09T20:51:47.698Z,2.68
